Time;durP1;ratioP1;P1;durP2;ratioP2;P2;SDS_P1;SDS_P2;PMS_P1;PMS_P2;Temp;Humidity;BMP_temperature;BMP_pressure;BME280_temperature;BME280_humidity;BME280_pressure;Samples;Min_cycle;Max_cycle;Signal;HPM_P1;HPM_P2
2022/03/28 00:01:42;;;;;;;16.90;12.93;;;14.50;37.00;;;;;;5135071;27;20251;-59
2022/03/28 00:04:09;;;;;;;15.07;12.50;;;14.40;37.30;;;;;;5135572;27;20275;-59
2022/03/28 00:06:37;;;;;;;17.70;13.70;;;14.30;37.50;;;;;;5135200;27;20258;-59
2022/03/28 00:09:05;;;;;;;14.68;12.93;;;14.20;37.50;;;;;;5135276;27;20271;-58
2022/03/28 00:11:32;;;;;;;14.85;13.35;;;14.10;37.70;;;;;;5133776;27;20194;-59
2022/03/28 00:14:00;;;;;;;14.60;13.13;;;14.10;38.20;;;;;;5135116;27;20229;-59
2022/03/28 00:16:27;;;;;;;15.27;13.07;;;14.00;38.80;;;;;;5135022;27;20216;-59
2022/03/28 00:18:54;;;;;;;17.77;14.00;;;13.90;39.30;;;;;;5134977;27;20725;-59
2022/03/28 00:21:21;;;;;;;15.75;14.02;;;13.80;39.90;;;;;;5135106;27;20198;-59
2022/03/28 00:23:49;;;;;;;16.90;14.50;;;13.60;40.50;;;;;;5134987;27;20297;-59
2022/03/28 00:26:16;;;;;;;18.38;15.25;;;13.50;40.90;;;;;;5133464;27;20205;-59
2022/03/28 00:28:43;;;;;;;16.40;14.57;;;13.20;41.70;;;;;;5134737;27;20569;-59
2022/03/28 00:31:10;;;;;;;16.50;14.80;;;13.00;42.30;;;;;;5134668;27;20242;-59
2022/03/28 00:33:36;;;;;;;15.57;13.68;;;13.00;42.40;;;;;;5134640;27;20226;-59
2022/03/28 00:36:05;;;;;;;17.88;14.73;;;13.00;42.70;;;;;;5134750;27;20252;-59
2022/03/28 00:38:32;;;;;;;18.48;14.32;;;13.10;42.60;;;;;;5134594;27;20202;-59
2022/03/28 00:41:00;;;;;;;18.13;13.90;;;13.00;43.10;;;;;;5133418;27;20209;-59
2022/03/28 00:43:28;;;;;;;15.95;13.98;;;12.90;43.40;;;;;;5134527;27;20198;-59
2022/03/28 00:45:55;;;;;;;16.50;14.65;;;12.80;42.90;;;;;;5134483;27;20207;-59
2022/03/28 00:48:22;;;;;;;16.27;14.57;;;12.90;42.80;;;;;;5134420;27;20209;-59
2022/03/28 00:50:49;;;;;;;16.42;14.80;;;12.90;43.60;;;;;;5133962;27;20202;-59
2022/03/28 00:53:17;;;;;;;17.85;13.75;;;13.00;43.10;;;;;;5134257;27;20209;-59
2022/03/28 00:55:46;;;;;;;20.35;14.48;;;12.90;43.30;;;;;;5133114;27;20226;-59
2022/03/28 00:58:14;;;;;;;18.45;14.18;;;12.80;43.40;;;;;;5134407;27;20294;-59
2022/03/28 01:00:41;;;;;;;15.70;13.77;;;12.50;44.00;;;;;;5134023;27;20202;-59
2022/03/28 01:03:08;;;;;;;18.60;14.20;;;12.30;44.50;;;;;;5134333;27;20214;-58
2022/03/28 01:05:35;;;;;;;19.98;14.82;;;12.20;44.90;;;;;;5134335;27;20293;-59
2022/03/28 01:08:02;;;;;;;16.10;14.25;;;12.10;45.40;;;;;;5134073;27;20302;-58
2022/03/28 01:10:30;;;;;;;18.60;15.23;;;12.00;45.00;;;;;;5132881;27;20198;-58
2022/03/28 01:12:58;;;;;;;16.67;14.35;;;11.90;45.00;;;;;;5134300;27;20206;-58
2022/03/28 01:15:26;;;;;;;18.98;15.20;;;11.90;44.90;;;;;;5133969;27;20226;-59
2022/03/28 01:18:09;;;;;;;20.38;14.80;;;12.00;44.30;;;;;;5134010;27;20195;-59
2022/03/28 01:20:37;;;;;;;18.15;14.55;;;12.20;43.80;;;;;;5134025;27;20676;-58
2022/03/28 01:23:06;;;;;;;19.85;15.13;;;12.40;43.40;;;;;;5133977;27;20551;-59
2022/03/28 01:25:33;;;;;;;17.75;14.98;;;12.50;43.20;;;;;;5132638;27;20652;-58
2022/03/28 01:28:01;;;;;;;17.25;14.38;;;12.50;43.40;;;;;;5133866;27;20234;-59
2022/03/28 01:30:31;;;;;;;18.70;15.10;;;12.40;44.10;;;;;;5133621;27;20233;-58
2022/03/28 01:32:58;;;;;;;19.13;15.30;;;12.30;44.60;;;;;;5133750;27;20202;-59
2022/03/28 01:35:30;;;;;;;20.70;16.42;;;12.20;45.30;;;;;;5133807;27;20253;-59
2022/03/28 01:37:57;;;;;;;19.38;15.50;;;12.20;45.50;;;;;;5133887;27;20230;-59
2022/03/28 01:40:26;;;;;;;19.42;15.43;;;12.10;45.50;;;;;;5132374;27;20202;-59
2022/03/28 01:42:53;;;;;;;18.73;15.85;;;12.10;46.00;;;;;;5133864;27;20653;-58
2022/03/28 01:45:20;;;;;;;22.58;16.10;;;12.10;46.60;;;;;;5133678;27;20202;-59
2022/03/28 01:47:47;;;;;;;19.73;15.52;;;12.10;46.00;;;;;;5133650;27;20201;-58
2022/03/28 01:50:14;;;;;;;17.67;14.88;;;12.10;46.10;;;;;;5133846;27;20209;-59
2022/03/28 01:52:41;;;;;;;19.15;15.75;;;12.20;45.90;;;;;;5133709;27;20199;-58
2022/03/28 01:55:10;;;;;;;20.73;14.60;;;12.20;46.10;;;;;;5132379;27;20240;-58
2022/03/28 01:57:38;;;;;;;18.27;14.65;;;12.20;46.30;;;;;;5133736;27;20600;-58
2022/03/28 02:00:07;;;;;;;19.63;15.20;;;12.10;46.20;;;;;;5133344;27;20234;-58
2022/03/28 02:02:34;;;;;;;17.75;14.88;;;12.20;45.40;;;;;;5134601;27;20720;-58
2022/03/28 02:05:01;;;;;;;17.92;15.27;;;12.20;46.20;;;;;;5137714;27;20317;-58
2022/03/28 02:07:28;;;;;;;18.52;14.25;;;12.10;46.40;;;;;;5137538;27;20228;-58
2022/03/28 02:09:55;;;;;;;21.05;14.75;;;12.10;46.40;;;;;;5136280;27;20199;-58
2022/03/28 02:12:22;;;;;;;19.48;15.32;;;12.00;46.70;;;;;;5137513;27;20290;-58
2022/03/28 02:14:50;;;;;;;22.52;15.80;;;12.00;47.20;;;;;;5137279;27;20237;-58
2022/03/28 02:17:17;;;;;;;22.15;14.95;;;11.90;47.00;;;;;;5137410;27;20217;-58
2022/03/28 02:19:44;;;;;;;15.27;13.30;;;11.80;46.10;;;;;;5137495;27;20209;-58
2022/03/28 02:22:10;;;;;;;24.85;15.60;;;11.80;46.00;;;;;;5137293;27;20198;-58
2022/03/28 02:24:39;;;;;;;18.67;15.48;;;11.80;45.70;;;;;;5137330;27;20248;-58
2022/03/28 02:27:07;;;;;;;18.13;14.40;;;11.80;45.30;;;;;;5136009;27;20210;-58
2022/03/28 02:29:34;;;;;;;16.40;14.65;;;11.80;45.10;;;;;;5137132;27;20234;-58
2022/03/28 02:32:03;;;;;;;15.60;13.90;;;11.80;45.50;;;;;;5137136;27;20665;-58
2022/03/28 02:34:29;;;;;;;18.52;13.95;;;11.80;44.70;;;;;;5137008;27;20719;-57
2022/03/28 02:36:56;;;;;;;15.85;14.05;;;11.70;44.90;;;;;;5137006;27;20302;-58
2022/03/28 02:39:23;;;;;;;19.17;15.25;;;11.70;44.90;;;;;;5137282;27;20221;-58
2022/03/28 02:41:50;;;;;;;17.00;14.75;;;11.70;45.10;;;;;;5135669;27;20660;-58
2022/03/28 02:44:18;;;;;;;17.65;14.07;;;11.70;44.50;;;;;;5136986;27;20207;-58
2022/03/28 02:46:46;;;;;;;18.90;15.70;;;11.70;43.60;;;;;;5136705;27;20654;-58
2022/03/28 02:49:14;;;;;;;16.20;14.50;;;11.80;43.40;;;;;;5136896;27;20665;-58
2022/03/28 02:51:41;;;;;;;14.43;12.50;;;11.80;43.60;;;;;;5136777;27;20237;-58
2022/03/28 02:54:08;;;;;;;21.70;15.48;;;11.70;43.00;;;;;;5136624;27;20203;-56
2022/03/28 02:56:35;;;;;;;19.88;15.40;;;11.60;43.30;;;;;;5135492;27;20645;-58
2022/03/28 02:59:02;;;;;;;18.98;14.27;;;11.70;43.70;;;;;;5136622;27;20623;-56
2022/03/28 03:01:29;;;;;;;18.40;14.43;;;11.60;43.80;;;;;;5136381;27;20633;-57
2022/03/28 03:03:56;;;;;;;17.50;13.07;;;11.50;44.10;;;;;;5136596;27;20198;-57
2022/03/28 03:06:24;;;;;;;17.45;14.15;;;11.50;44.10;;;;;;5136516;27;20226;-59
2022/03/28 03:08:51;;;;;;;16.60;14.80;;;11.50;44.10;;;;;;5136409;27;20644;-56
2022/03/28 03:11:18;;;;;;;16.50;13.95;;;11.50;44.40;;;;;;5134966;27;20210;-58
2022/03/28 03:13:46;;;;;;;19.15;14.10;;;11.50;44.40;;;;;;5136019;27;20545;-59
2022/03/28 03:16:13;;;;;;;17.63;12.80;;;11.50;44.10;;;;;;5136080;27;20261;-58
2022/03/28 03:18:40;;;;;;;17.40;14.68;;;11.50;44.10;;;;;;5136239;27;20846;-58
2022/03/28 03:21:07;;;;;;;17.90;14.50;;;11.50;44.10;;;;;;5136256;27;20248;-57
2022/03/28 03:23:35;;;;;;;18.48;14.15;;;11.50;44.30;;;;;;5135931;27;20283;-57
2022/03/28 03:26:02;;;;;;;14.85;12.63;;;11.50;44.30;;;;;;5134946;27;20293;-57
2022/03/28 03:28:29;;;;;;;19.88;14.82;;;11.50;44.10;;;;;;5136151;27;20203;-57
2022/03/28 03:30:56;;;;;;;19.05;15.10;;;11.50;44.30;;;;;;5135906;27;20241;-59
2022/03/28 03:33:23;;;;;;;17.33;14.10;;;11.50;44.10;;;;;;5135907;27;20225;-60
2022/03/28 03:35:49;;;;;;;17.63;15.48;;;11.50;44.00;;;;;;5135769;27;20249;-58
2022/03/28 03:38:16;;;;;;;16.83;14.40;;;11.50;43.90;;;;;;5135787;27;20662;-59
2022/03/28 03:40:45;;;;;;;23.20;15.68;;;11.50;43.90;;;;;;5134668;27;20202;-59
2022/03/28 03:43:12;;;;;;;15.93;12.27;;;11.50;43.90;;;;;;5135762;27;20235;-58
2022/03/28 03:45:39;;;;;;;18.25;13.35;;;11.50;43.90;;;;;;5135580;27;20283;-57
2022/03/28 03:48:06;;;;;;;19.20;13.85;;;11.50;44.10;;;;;;5135505;27;20241;-57
2022/03/28 03:50:33;;;;;;;26.98;15.35;;;11.50;44.10;;;;;;5135521;27;20218;-57
2022/03/28 03:53:00;;;;;;;17.25;13.00;;;11.40;44.30;;;;;;5135495;27;20733;-57
2022/03/28 03:55:27;;;;;;;16.73;13.15;;;11.30;44.30;;;;;;5134276;27;20230;-57
2022/03/28 03:57:55;;;;;;;16.15;14.35;;;11.30;44.30;;;;;;5135496;27;20270;-57
2022/03/28 04:00:23;;;;;;;17.17;13.20;;;11.30;44.30;;;;;;5135159;27;20730;-57
2022/03/28 04:02:50;;;;;;;21.95;13.70;;;11.30;44.40;;;;;;5135425;27;20199;-57
2022/03/28 04:05:17;;;;;;;15.48;13.85;;;11.30;44.40;;;;;;5135149;27;20257;-57
2022/03/28 04:07:44;;;;;;;16.58;14.68;;;11.30;44.30;;;;;;5135358;27;20309;-57
2022/03/28 04:10:12;;;;;;;20.05;14.68;;;11.30;44.30;;;;;;5134103;27;20199;-59
2022/03/28 04:12:39;;;;;;;17.98;14.20;;;11.30;44.30;;;;;;5135204;27;20203;-57
2022/03/28 04:15:10;;;;;;;16.65;14.85;;;11.30;44.40;;;;;;5135111;27;20222;-56
2022/03/28 04:17:42;;;;;;;19.50;15.10;;;11.30;44.50;;;;;;5134901;27;20207;-59
2022/03/28 04:20:12;;;;;;;16.45;14.57;;;11.30;44.60;;;;;;5135054;27;20198;-57
2022/03/28 04:22:40;;;;;;;16.90;14.32;;;11.20;45.00;;;;;;5134907;27;20205;-58
2022/03/28 04:25:08;;;;;;;17.65;13.30;;;11.10;45.40;;;;;;5132859;27;20241;-56
2022/03/28 04:27:36;;;;;;;16.55;12.35;;;11.00;45.80;;;;;;5134924;27;20203;-58
2022/03/28 04:30:03;;;;;;;16.33;13.20;;;10.80;46.20;;;;;;5134682;27;20227;-56
2022/03/28 04:32:31;;;;;;;18.83;14.52;;;10.70;46.40;;;;;;5134687;27;20293;-58
2022/03/28 04:34:58;;;;;;;18.40;15.10;;;10.60;46.80;;;;;;5134687;27;20229;-56
2022/03/28 04:37:25;;;;;;;19.70;13.85;;;10.40;47.50;;;;;;5134856;27;20194;-56
2022/03/28 04:39:52;;;;;;;17.27;15.48;;;10.30;48.20;;;;;;5133683;27;20209;-56
2022/03/28 04:42:19;;;;;;;22.00;14.00;;;10.20;48.60;;;;;;5134585;27;20567;-58
2022/03/28 04:44:46;;;;;;;22.58;14.90;;;10.20;48.90;;;;;;5134360;27;20289;-58
2022/03/28 04:47:13;;;;;;;16.92;15.13;;;10.10;49.00;;;;;;5134372;27;20280;-57
2022/03/28 04:49:41;;;;;;;16.60;14.20;;;10.00;49.30;;;;;;5134461;27;20213;-57
2022/03/28 04:52:08;;;;;;;18.48;14.77;;;9.90;49.80;;;;;;5134457;27;20230;-57
2022/03/28 04:54:36;;;;;;;22.15;13.40;;;9.90;49.80;;;;;;5134356;27;20286;-57
2022/03/28 04:57:03;;;;;;;18.05;14.48;;;9.90;49.90;;;;;;5132962;27;20692;-56
2022/03/28 04:59:30;;;;;;;17.30;15.02;;;9.90;49.70;;;;;;5134113;27;20209;-58
2022/03/28 05:01:57;;;;;;;17.08;14.55;;;9.90;49.20;;;;;;5134085;27;20213;-58
2022/03/28 05:04:24;;;;;;;21.05;14.38;;;10.00;49.00;;;;;;5134109;27;20199;-57
2022/03/28 05:06:52;;;;;;;16.17;14.45;;;10.10;48.80;;;;;;5134262;27;20225;-56
2022/03/28 05:09:19;;;;;;;18.13;13.50;;;10.20;48.60;;;;;;5134282;27;20293;-56
2022/03/28 05:11:46;;;;;;;19.52;14.00;;;10.10;48.70;;;;;;5132893;27;20194;-56
2022/03/28 05:14:13;;;;;;;19.70;14.07;;;10.00;49.30;;;;;;5133991;27;20691;-58
2022/03/28 05:16:40;;;;;;;19.58;15.48;;;9.90;49.70;;;;;;5133799;27;20237;-56
2022/03/28 05:19:06;;;;;;;23.67;14.05;;;9.80;50.00;;;;;;5134039;27;20238;-58
2022/03/28 05:21:34;;;;;;;16.90;14.30;;;9.80;50.20;;;;;;5133905;27;20649;-56
2022/03/28 05:24:02;;;;;;;17.27;14.55;;;9.80;50.50;;;;;;5133871;27;20209;-56
2022/03/28 05:26:29;;;;;;;21.17;14.25;;;9.70;50.50;;;;;;5132446;27;20282;-56
2022/03/28 05:28:56;;;;;;;19.50;15.48;;;9.70;50.60;;;;;;5133742;27;20701;-56
2022/03/28 05:31:23;;;;;;;18.95;15.27;;;9.70;50.80;;;;;;5133644;27;20606;-56
2022/03/28 05:33:50;;;;;;;18.52;13.10;;;9.70;50.90;;;;;;5133801;27;20203;-56
2022/03/28 05:36:17;;;;;;;21.63;14.82;;;9.70;51.00;;;;;;5134776;27;20261;-56
2022/03/28 05:38:44;;;;;;;18.38;11.57;;;9.70;51.80;;;;;;5140638;27;20285;-56
2022/03/28 05:41:13;;;;;;;17.77;14.50;;;9.60;51.70;;;;;;5139220;27;20285;-56
2022/03/28 05:43:40;;;;;;;20.63;15.55;;;9.70;51.70;;;;;;5140834;27;20603;-56
2022/03/28 05:46:07;;;;;;;16.80;15.13;;;9.70;51.70;;;;;;5140430;27;20208;-58
2022/03/28 05:48:34;;;;;;;17.42;13.60;;;9.70;51.40;;;;;;5140520;27;20566;-56
2022/03/28 05:51:01;;;;;;;23.08;14.82;;;9.60;51.50;;;;;;5140561;27;20657;-57
2022/03/28 05:53:28;;;;;;;19.38;14.98;;;9.60;51.70;;;;;;5140316;27;20206;-56
2022/03/28 05:55:55;;;;;;;17.35;14.13;;;9.50;51.80;;;;;;5138955;27;20309;-55
2022/03/28 05:58:24;;;;;;;17.23;14.18;;;9.50;52.00;;;;;;5140413;27;20199;-56
2022/03/28 06:00:51;;;;;;;21.35;15.40;;;9.50;51.90;;;;;;5140300;27;20221;-55
2022/03/28 06:03:18;;;;;;;18.77;14.35;;;9.50;52.00;;;;;;5140454;27;20555;-57
2022/03/28 06:05:45;;;;;;;21.35;16.02;;;9.50;52.10;;;;;;5140312;27;20214;-56
2022/03/28 06:08:12;;;;;;;17.55;12.73;;;9.50;52.20;;;;;;5140318;27;20563;-56
2022/03/28 06:10:39;;;;;;;18.58;16.05;;;9.40;52.70;;;;;;5139193;27;20206;-56
2022/03/28 06:13:06;;;;;;;18.35;15.77;;;9.30;52.70;;;;;;5140373;27;20205;-55
2022/03/28 06:15:36;;;;;;;17.80;14.98;;;9.20;53.10;;;;;;5140260;27;20230;-55
2022/03/28 06:18:04;;;;;;;19.13;13.95;;;9.20;53.30;;;;;;5140033;27;20716;-57
2022/03/28 06:20:31;;;;;;;20.35;13.95;;;9.20;53.60;;;;;;5140335;27;20572;-55
2022/03/28 06:22:58;;;;;;;22.98;15.90;;;9.20;53.30;;;;;;5140294;27;20213;-56
2022/03/28 06:25:25;;;;;;;15.80;13.25;;;9.20;53.50;;;;;;5138926;27;20566;-56
2022/03/28 06:27:52;;;;;;;16.40;14.38;;;9.10;53.60;;;;;;5140125;27;20198;-56
2022/03/28 06:30:19;;;;;;;18.15;13.50;;;9.10;53.80;;;;;;5140141;27;20235;-56
2022/03/28 06:32:47;;;;;;;17.55;15.65;;;9.10;53.80;;;;;;5139766;27;20285;-56
2022/03/28 06:35:14;;;;;;;21.95;16.35;;;9.10;53.80;;;;;;5140273;27;20198;-55
2022/03/28 06:37:41;;;;;;;19.77;14.45;;;9.10;53.20;;;;;;5139991;27;20675;-56
2022/03/28 06:40:09;;;;;;;16.40;14.00;;;9.10;53.30;;;;;;5138743;27;20864;-56
2022/03/28 06:42:36;;;;;;;16.73;14.88;;;9.20;53.50;;;;;;5140044;27;20205;-55
2022/03/28 06:45:03;;;;;;;16.70;13.80;;;9.30;53.90;;;;;;5139994;27;20285;-55
2022/03/28 06:47:30;;;;;;;16.85;15.00;;;9.30;53.80;;;;;;5139639;27;20209;-57
2022/03/28 06:49:58;;;;;;;22.52;16.75;;;9.40;53.70;;;;;;5135874;27;20279;-55
2022/03/28 06:52:25;;;;;;;20.17;15.85;;;9.40;53.20;;;;;;5136778;27;20286;-56
2022/03/28 06:54:52;;;;;;;19.67;15.48;;;9.50;53.10;;;;;;5135845;27;20281;-56
2022/03/28 06:57:19;;;;;;;20.50;15.35;;;9.50;52.60;;;;;;5136120;27;20237;-57
2022/03/28 06:59:46;;;;;;;20.05;15.00;;;9.70;52.10;;;;;;5136614;27;20199;-57
2022/03/28 07:02:13;;;;;;;21.58;15.52;;;9.80;51.80;;;;;;5136488;27;20241;-58
2022/03/28 07:04:40;;;;;;;23.38;16.92;;;9.90;51.30;;;;;;5136403;27;20301;-56
2022/03/28 07:07:09;;;;;;;19.17;14.90;;;10.00;51.20;;;;;;5136492;27;20255;-56
2022/03/28 07:09:36;;;;;;;19.95;13.20;;;10.10;51.10;;;;;;5136350;27;20199;-56
2022/03/28 07:12:05;;;;;;;20.48;15.10;;;10.20;50.60;;;;;;5134991;27;20290;-56
2022/03/28 07:14:32;;;;;;;18.27;15.18;;;10.30;50.80;;;;;;5136285;27;20652;-56
2022/03/28 07:16:59;;;;;;;18.40;14.98;;;10.30;51.10;;;;;;5135987;27;20226;-58
2022/03/28 07:19:26;;;;;;;19.58;15.43;;;10.30;51.10;;;;;;5136051;27;20294;-56
2022/03/28 07:21:54;;;;;;;17.25;15.57;;;10.30;51.00;;;;;;5136258;27;20563;-58
2022/03/28 07:24:22;;;;;;;19.15;15.95;;;10.40;51.30;;;;;;5136127;27;20293;-58
2022/03/28 07:26:49;;;;;;;18.25;16.05;;;10.40;51.70;;;;;;5134823;27;20238;-58
2022/03/28 07:29:17;;;;;;;19.70;16.50;;;10.40;51.60;;;;;;5136007;27;20326;-57
2022/03/28 07:31:44;;;;;;;22.63;17.38;;;10.40;51.50;;;;;;5135593;27;20205;-57
2022/03/28 07:36:55;;;;;;;19.17;15.98;;;10.50;52.00;;;;;;5135850;27;20364;-57
2022/03/28 07:39:24;;;;;;;20.42;14.60;;;10.60;50.80;;;;;;5135836;27;20282;-57
2022/03/28 07:41:52;;;;;;;20.88;15.63;;;10.70;50.50;;;;;;5134476;27;20281;-57
2022/03/28 07:44:19;;;;;;;20.98;16.20;;;10.80;50.40;;;;;;5135613;27;20634;-58
2022/03/28 07:46:47;;;;;;;17.88;16.00;;;10.90;50.50;;;;;;5135558;27;20226;-57
2022/03/28 07:49:14;;;;;;;20.35;14.23;;;11.00;50.00;;;;;;5135609;27;20293;-57
2022/03/28 07:51:41;;;;;;;18.95;15.48;;;11.20;49.10;;;;;;5135650;27;20210;-57
2022/03/28 07:54:09;;;;;;;28.05;16.02;;;11.30;49.30;;;;;;5135436;27;21148;-57
2022/03/28 07:56:37;;;;;;;20.80;17.00;;;11.40;49.60;;;;;;5134117;27;20227;-57
2022/03/28 07:59:04;;;;;;;21.23;16.50;;;11.60;49.20;;;;;;5135239;27;20230;-57
2022/03/28 08:01:31;;;;;;;19.45;17.45;;;11.60;49.40;;;;;;5134272;27;20203;-57
2022/03/28 08:03:58;;;;;;;18.77;16.23;;;11.70;49.50;;;;;;5135162;27;20564;-57
2022/03/28 08:06:25;;;;;;;18.90;16.75;;;11.80;49.00;;;;;;5135271;27;20221;-57
2022/03/28 08:08:52;;;;;;;20.30;16.73;;;11.90;49.40;;;;;;5135167;27;20251;-57
2022/03/28 08:11:18;;;;;;;21.90;16.92;;;12.10;49.40;;;;;;5133681;27;20203;-57
2022/03/28 08:13:47;;;;;;;20.73;16.83;;;12.20;50.20;;;;;;5135111;27;20234;-57
2022/03/28 08:16:14;;;;;;;20.33;16.73;;;12.30;49.90;;;;;;5134876;27;20223;-57
2022/03/28 08:18:41;;;;;;;24.90;16.65;;;12.40;49.50;;;;;;5135159;27;20210;-60
2022/03/28 08:21:08;;;;;;;19.80;17.00;;;12.50;49.70;;;;;;5134990;27;20237;-59
2022/03/28 08:23:36;;;;;;;18.67;16.05;;;12.60;50.00;;;;;;5135008;27;20221;-59
2022/03/28 08:26:04;;;;;;;18.50;16.67;;;12.70;49.80;;;;;;5133383;27;20202;-60
2022/03/28 08:28:31;;;;;;;22.25;16.75;;;12.80;49.90;;;;;;5134813;27;20637;-60
2022/03/28 08:30:59;;;;;;;21.35;17.52;;;13.00;49.90;;;;;;5134912;27;20298;-59
2022/03/28 08:33:26;;;;;;;21.20;17.63;;;13.20;49.30;;;;;;5134752;27;20561;-60
2022/03/28 08:35:53;;;;;;;21.38;17.77;;;13.30;49.00;;;;;;5134653;27;20198;-60
2022/03/28 08:38:21;;;;;;;23.70;18.10;;;13.30;49.00;;;;;;5134516;27;20199;-60
2022/03/28 08:40:48;;;;;;;20.38;18.23;;;13.50;49.00;;;;;;5133458;27;20782;-60
2022/03/28 08:43:18;;;;;;;22.33;16.55;;;13.70;48.50;;;;;;5134723;27;20248;-60
2022/03/28 08:45:46;;;;;;;22.00;18.52;;;13.90;48.40;;;;;;5134625;27;20278;-59
2022/03/28 08:48:15;;;;;;;24.25;19.52;;;14.10;48.00;;;;;;5134253;27;20210;-60
2022/03/28 08:50:44;;;;;;;22.52;17.13;;;14.30;46.90;;;;;;5134529;27;20198;-60
2022/03/28 08:53:11;;;;;;;22.50;18.60;;;14.40;47.50;;;;;;5134378;27;20226;-60
2022/03/28 08:55:40;;;;;;;18.45;15.50;;;14.60;47.60;;;;;;5133148;27;20226;-60
2022/03/28 08:58:07;;;;;;;21.63;17.60;;;14.80;47.60;;;;;;5134438;27;20582;-60
2022/03/28 09:00:34;;;;;;;19.48;17.40;;;15.10;46.70;;;;;;5134402;27;20203;-60
2022/03/28 09:03:01;;;;;;;25.27;18.33;;;15.20;45.40;;;;;;5134195;27;20230;-60
2022/03/28 09:05:33;;;;;;;22.17;19.27;;;15.30;46.10;;;;;;5134166;27;20270;-60
2022/03/28 09:08:00;;;;;;;21.65;16.52;;;15.40;45.10;;;;;;5134303;27;20213;-60
2022/03/28 09:10:31;;;;;;;20.25;18.05;;;15.50;43.50;;;;;;5132872;27;20203;-60
2022/03/28 09:12:59;;;;;;;20.85;18.75;;;15.60;45.10;;;;;;5133730;27;20202;-60
2022/03/28 09:15:27;;;;;;;21.40;18.57;;;15.80;45.40;;;;;;5134126;27;20285;-60
2022/03/28 09:17:58;;;;;;;27.57;20.23;;;15.90;45.00;;;;;;5133773;27;20494;-60
2022/03/28 09:20:25;;;;;;;24.37;19.47;;;16.00;44.70;;;;;;5133983;27;20452;-60
2022/03/28 09:22:54;;;;;;;22.93;19.60;;;16.20;44.80;;;;;;5133891;27;20444;-60
2022/03/28 09:25:20;;;;;;;22.30;17.58;;;16.30;44.30;;;;;;5132688;27;20483;-60
2022/03/28 09:27:49;;;;;;;29.70;21.43;;;16.30;44.20;;;;;;5133890;27;20198;-60
2022/03/28 09:30:18;;;;;;;21.80;19.13;;;16.40;44.60;;;;;;5133756;27;20566;-60
2022/03/28 09:32:47;;;;;;;26.00;19.65;;;16.50;44.50;;;;;;5133657;27;20463;-60
2022/03/28 09:35:19;;;;;;;23.00;20.23;;;16.60;44.20;;;;;;5133886;27;20218;-60
2022/03/28 09:38:02;;;;;;;22.67;19.00;;;16.70;43.30;;;;;;5133672;27;20896;-60
2022/03/28 09:40:32;;;;;;;26.27;20.10;;;16.70;43.60;;;;;;5132408;27;20884;-59
2022/03/28 09:43:00;;;;;;;26.10;20.57;;;16.80;43.80;;;;;;5133674;27;20448;-60
2022/03/28 09:45:31;;;;;;;26.23;19.70;;;16.90;43.80;;;;;;5133625;27;20950;-60
2022/03/28 09:48:01;;;;;;;28.23;21.20;;;17.10;43.60;;;;;;5133545;27;20475;-60
2022/03/28 09:50:34;;;;;;;25.07;18.13;;;17.20;43.40;;;;;;5133725;27;20440;-60
2022/03/28 09:53:20;;;;;;;21.43;18.47;;;17.30;42.60;;;;;;5133733;27;20521;-60
2022/03/28 09:55:53;;;;;;;23.00;19.30;;;17.40;43.10;;;;;;5132197;27;20497;-60
2022/03/28 09:58:35;;;;;;;24.23;20.00;;;17.40;42.20;;;;;;5133454;27;20571;-60
2022/03/28 10:01:05;;;;;;;20.70;18.60;;;17.50;42.50;;;;;;5133649;27;20528;-60
2022/03/28 10:03:34;;;;;;;22.77;19.70;;;17.60;41.80;;;;;;5133302;27;20496;-60
2022/03/28 10:06:01;;;;;;;23.37;20.47;;;17.70;40.90;;;;;;5133636;27;20451;-60
2022/03/28 10:08:30;;;;;;;28.03;19.43;;;17.70;41.30;;;;;;5133541;27;20456;-60
2022/03/28 10:10:58;;;;;;;24.40;19.23;;;17.90;41.80;;;;;;5132329;27;20444;-57
2022/03/28 10:13:25;;;;;;;22.67;19.50;;;18.10;41.80;;;;;;5133588;27;20444;-59
2022/03/28 10:15:52;;;;;;;20.87;18.70;;;18.30;40.80;;;;;;5133481;27;20445;-60
2022/03/28 10:18:19;;;;;;;22.70;18.33;;;18.40;41.20;;;;;;5133139;27;20496;-60
2022/03/28 10:20:53;;;;;;;27.90;18.93;;;18.40;40.30;;;;;;5133319;27;20452;-60
2022/03/28 10:23:23;;;;;;;22.57;20.03;;;18.40;39.60;;;;;;5134102;27;20584;-60
2022/03/28 10:25:53;;;;;;;22.80;20.00;;;18.40;40.00;;;;;;5136006;27;20444;-60
2022/03/28 10:28:22;;;;;;;26.97;19.33;;;18.50;40.00;;;;;;5137352;27;20448;-60
2022/03/28 10:30:49;;;;;;;26.67;22.30;;;18.70;39.90;;;;;;5137136;27;20900;-60
2022/03/28 10:33:18;;;;;;;25.80;19.47;;;18.80;39.40;;;;;;5136921;27;20800;-60
2022/03/28 10:35:59;;;;;;;26.50;21.40;;;19.00;39.10;;;;;;5137097;27;20540;-60
2022/03/28 10:38:26;;;;;;;24.23;19.80;;;19.20;39.50;;;;;;5136956;27;20497;-58
2022/03/28 10:40:57;;;;;;;25.80;20.80;;;19.30;39.80;;;;;;5135703;27;20539;-60
2022/03/28 10:43:26;;;;;;;27.00;21.07;;;19.40;39.50;;;;;;5136872;27;20454;-60
2022/03/28 10:45:56;;;;;;;24.93;20.53;;;19.60;38.90;;;;;;5136790;27;20536;-59
2022/03/28 10:48:38;;;;;;;22.20;19.63;;;19.60;38.90;;;;;;5136625;27;20787;-60
2022/03/28 10:51:07;;;;;;;25.17;20.63;;;19.60;39.00;;;;;;5136813;27;20462;-57
2022/03/28 10:53:39;;;;;;;23.93;21.33;;;19.50;38.80;;;;;;5136776;27;21039;-60
2022/03/28 10:56:12;;;;;;;21.53;19.23;;;19.60;40.80;;;;;;5135387;27;20922;-58
2022/03/28 10:58:43;;;;;;;24.20;20.40;;;19.90;39.20;;;;;;5136540;27;20494;-58
2022/03/28 11:01:21;;;;;;;25.07;20.47;;;20.10;39.90;;;;;;5136660;27;20539;-59
2022/03/28 11:03:52;;;;;;;24.90;20.57;;;20.30;39.00;;;;;;5136492;27;20464;-59
2022/03/28 11:06:21;;;;;;;22.33;19.80;;;20.60;38.80;;;;;;5136601;27;20447;-59
2022/03/28 11:08:59;;;;;;;27.03;20.50;;;20.80;38.40;;;;;;5136254;27;20539;-60
2022/03/28 11:11:31;;;;;;;22.90;19.43;;;20.80;37.70;;;;;;5135032;27;20531;-59
2022/03/28 11:13:59;;;;;;;25.57;20.07;;;21.10;37.60;;;;;;5136347;27;20535;-59
2022/03/28 11:16:50;;;;;;;22.73;20.47;;;21.20;36.90;;;;;;5136271;27;20452;-60
2022/03/28 11:19:29;;;;;;;21.50;19.50;;;21.40;36.10;;;;;;5136356;27;20532;-60
2022/03/28 11:22:01;;;;;;;30.93;19.80;;;21.70;34.60;;;;;;5136241;27;20451;-57
2022/03/28 11:24:49;;;;;;;22.47;20.17;;;22.60;33.40;;;;;;5136196;27;20543;-57
2022/03/28 11:27:18;;;;;;;22.50;20.20;;;24.40;31.50;;;;;;5135022;27;20440;-58
2022/03/28 11:29:46;;;;;;;21.40;17.97;;;26.30;29.60;;;;;;5136001;27;20472;-58
2022/03/28 11:32:14;;;;;;;24.20;21.20;;;27.90;28.70;;;;;;5135817;27;20927;-58
2022/03/28 11:34:41;;;;;;;23.13;20.63;;;28.80;24.50;;;;;;5135582;27;20484;-58
2022/03/28 11:37:08;;;;;;;23.70;21.30;;;29.30;26.50;;;;;;5135870;27;20486;-58
2022/03/28 11:40:01;;;;;;;21.00;17.73;;;29.70;25.40;;;;;;5135871;27;20797;-58
2022/03/28 11:42:31;;;;;;;24.10;20.30;;;29.70;24.50;;;;;;5135862;27;20458;-58
2022/03/28 11:45:08;;;;;;;22.50;20.03;;;29.50;23.80;;;;;;5135989;27;20447;-58
2022/03/28 11:47:36;;;;;;;23.30;20.53;;;29.20;24.40;;;;;;5135648;27;20479;-58
2022/03/28 11:50:08;;;;;;;27.30;21.63;;;28.70;24.20;;;;;;5135681;27;20456;-58
2022/03/28 11:52:36;;;;;;;25.27;21.60;;;28.30;25.00;;;;;;5135424;27;20943;-58
2022/03/28 11:55:17;;;;;;;24.50;21.77;;;27.80;25.40;;;;;;5134343;27;20448;-58
2022/03/28 12:00:33;;;;;;;25.70;21.30;;;27.40;25.60;;;;;;5135545;27;20445;-58
2022/03/28 12:03:02;;;;;;;24.27;21.67;;;27.40;25.60;;;;;;5135206;27;20480;-58
2022/03/28 12:05:31;;;;;;;23.60;21.10;;;27.30;25.70;;;;;;5135493;27;20508;-58
2022/03/28 12:08:00;;;;;;;25.13;22.10;;;27.10;25.50;;;;;;5135315;27;20977;-58
2022/03/28 12:10:29;;;;;;;22.87;20.50;;;26.80;25.10;;;;;;5133929;27;20449;-58
2022/03/28 12:12:59;;;;;;;24.17;21.23;;;26.60;26.20;;;;;;5135325;27;20449;-57
2022/03/28 12:15:30;;;;;;;24.83;22.33;;;26.50;25.90;;;;;;5135022;27;20456;-57
2022/03/28 12:17:59;;;;;;;25.17;22.20;;;26.50;26.30;;;;;;5134887;27;20496;-58
2022/03/28 12:20:28;;;;;;;24.53;21.93;;;26.40;25.90;;;;;;5135205;27;20446;-58
2022/03/28 12:22:55;;;;;;;29.77;21.70;;;26.00;26.60;;;;;;5135098;27;20982;-58
2022/03/28 12:25:24;;;;;;;24.70;22.17;;;25.90;26.50;;;;;;5133598;27;20454;-58
2022/03/28 12:27:54;;;;;;;23.10;20.60;;;25.70;26.70;;;;;;5134825;27;20483;-58
2022/03/28 12:30:29;;;;;;;23.97;19.87;;;25.70;27.20;;;;;;5134702;27;20571;-58
2022/03/28 12:32:56;;;;;;;24.30;20.13;;;25.70;27.10;;;;;;5134578;27;20448;-58
2022/03/28 12:35:23;;;;;;;24.73;22.10;;;25.70;27.60;;;;;;5134758;27;20455;-57
2022/03/28 12:38:01;;;;;;;25.43;21.57;;;25.60;27.10;;;;;;5134647;27;20626;-58
2022/03/28 12:40:30;;;;;;;24.30;19.47;;;25.30;28.20;;;;;;5133219;27;20448;-58